• pl
  • eng

Awiacja
NEWS
last updated: 12.09.2019 14:49<\/div>
Dear users,
We would like to inform you that from September 2nd a test form of the GAFOR forecast is available on our webpage. Please send your comments and suggestions to gafor@imgw.pl that will contribute to product development.
Click on the bold red name to decode a message. 06:31 10.04.2020
  • WIND
  • SIGNIFICANT EURO
  • SIGNIFICANT
  • SIGMET
  • AIRMET
  • TAF FC
  • TAF FT
  • METAR GG30
  • METAR GG00


METAR EPBY 100430Z 24004KT CAVOK M00/M03 Q1024=

METAR EPGD 100430Z 28004KT CAVOK 01/M00 Q1023 =

METAR EPKK 100430Z 32006KT 9999 FEW035 07/03 Q1024 =

METAR EPKT 100430Z VRB01KT 9999 MIFG NSC 02/01 Q1024 =

METAR EPLB 100430Z 32006KT CAVOK 04/03 Q1022 =

METAR EPLL 100430Z 24002KT CAVOK 00/M01 Q1024 =

METAR EPMO 100430Z 26004KT CAVOK 01/01 Q1024 =

METAR EPPO 100430Z 26002KT CAVOK M01/M03 Q1026 =

METAR EPRA 100430Z NIL=

METAR EPRZ 100430Z 33011KT 9999 FEW041 07/M00 Q1022 =

METAR EPSC 100430Z VRB01KT 9999 MIFG NSC M00/M01 Q1026 =

METAR EPSY 100430Z NIL=

METAR EPWA 100430Z 30004KT CAVOK 03/02 Q1024 NOSIG=

METAR EPWR 100430Z 32004KT CAVOK 02/01 Q1026 =

METAR EPZG 100430Z 21002KT CAVOK M01/M01 Q1027 =
Awiacja.imgw.pl jest pogodowym serwisem informacyjnym
Instytutu Meteorologii i Gospodarki Wodnej Państwowego Instytutu Badawczego.
Copyright IMGW PIB 2009-2019© Wszelkie prawa zastrzeżone.